Waiteville, WV (24984)

2:32 AM EST on January 21, 2017 (GMT -0500)
Johns Creek Valley | | Change Station

Elev 1654 ft 37.49 °N, 80.24 °W | Updated 14 seconds ago

Fog
Fog
42.1 °F
Feels Like 42 °F
N
0.0
Wind Variable Wind from SSW

Today
High -- | Low -- °F
--% Chance of Precip.
Yesterday
High -- | Low -- °F
Precip. -- in
Pressure 29.94 in
Visibility 0.2 miles
Clouds Overcast 100 ft
Windchill 42 °F
Dew Point 41 °F
Humidity 98%
Rainfall 0.00 in
Snow Depth Not available.
7:32 AM 5:34 PM
Last Quarter, 37% visible
METAR KBCB 210715Z AUTO 00000KT 1/4SM FG OVC001 05/05 A2994 RMK AO2 T00500050
Pressure 29.94 in
Visibility 0.2 miles
Clouds Overcast 100 ft
Windchill 42 °F
Dew Point 41 °F
Humidity 98%
Rainfall 0.00 in
Snow Depth Not available.
7:32 AM 5:34 PM
Last Quarter, 37% visible
METAR KBCB 210715Z AUTO 00000KT 1/4SM FG OVC001 05/05 A2994 RMK AO2 T00500050

Get Your Daily Forecast Email!

Thanks for signing up!

Be on the lookout for a verification email in your inbox.

You'll start receiving the daily forecast at 8 AM.

×

10-Day Weather Forecast

Almanac

Astronomy

Jan. 21, 2017 Rise Set
Actual Time
Civil Twilight
Nautical Twilight
Astronomical Twilight
Moon
Length of Visible Light
Length of Day
Tomorrow will be .
, % of the Moon is Illuminated

Today's Extremes

State Highs State Lows

Community

WunderPhotos

Upload Photos

1,962,540 photos uploaded!

WunderBlog® & News

Nearby

Air Quality

  Air Quality AQ Index Pollutant
Not available.

Snow Depth

Station Depth Elevation

Earthquake Activity

City Distance Mag. Time & Date
Minimum magnitude displayed is 2.5.

Coastal Water Temperatures

Place Temperature

Stations

Nearby Weather Stations

Station Location Temp. Windchill Dew Point Humidity Wind Precip. Elev Updated Type
                   

Watches & Warnings

There are currently no watches in effect.